Karlsruhe, North Dakota
Current Conditions -  °F | °C
As of 6:54 AM on Saturday 20 Dec 2014 (Local Time) from KMOT Reporting Station
Moderate Fog Moderate Fog  
Wind Chill: 14°   Ceiling: 100
Heat Index: 23°   Visibility: 0.25mi
Dew Point: 21°   Wind: 8mph
Humidity: 92%   Direction: 120°ESE
Pressure: 29.89"   Gusts: NA
Location:  48.09°N, 100.62°W
Report Text: KMOT 201254Z AUTO 12007KT 1/4SM FZFG VV001 M05/M06 A2989 RMK AO2 SLP147 I1005 T10501061
Loading
Personal Weather Stations






























Interactive Weather Map New forecast layout! Learn more

10-Day Weather Forecast

Advertisements
Track Severe Weather on mobile